createdAt,value
2022-11-08T00:02:36.178Z,91.92
2022-11-08T00:08:07.708Z,91.79
2022-11-08T00:13:39.455Z,92.58
2022-11-08T00:19:11.339Z,93.19
2022-11-08T00:24:42.848Z,92.73
2022-11-08T00:30:14.595Z,93.07
2022-11-08T00:35:46.263Z,92.8
2022-11-08T00:41:18.378Z,92.54
2022-11-08T00:46:49.759Z,91.96
2022-11-08T00:52:25.787Z,92.08
2022-11-08T00:58:01.131Z,91.57
2022-11-08T01:03:29.286Z,91.93
2022-11-08T01:09:01.009Z,91.19
2022-11-08T01:14:32.714Z,91.53
2022-11-08T01:20:04.512Z,91.91
2022-11-08T01:25:36.180Z,91.64
2022-11-08T01:31:07.915Z,91.75
2022-11-08T01:36:40.184Z,91.1
2022-11-08T01:42:11.364Z,90.88
2022-11-08T01:47:43.044Z,91.19
2022-11-08T01:53:19.100Z,91.29
2022-11-08T01:58:50.972Z,91.37
2022-11-08T02:04:22.740Z,91.2
2022-11-08T02:09:54.602Z,91.46
2022-11-08T02:15:26.067Z,91.92
2022-11-08T02:20:57.728Z,91.75
2022-11-08T02:26:29.534Z,92.22
2022-11-08T02:32:01.535Z,92.94
2022-11-08T02:37:32.984Z,93.02
2022-11-08T02:43:04.640Z,93.57
2022-11-08T02:48:36.379Z,93.55
2022-11-08T02:54:12.411Z,93.78
2022-11-08T02:59:44.173Z,93.81
2022-11-08T03:05:15.923Z,94.34
2022-11-08T03:10:47.576Z,94.16
2022-11-08T03:16:19.302Z,93.44
2022-11-08T03:21:51.098Z,93.44
2022-11-08T03:27:23.062Z,93.83
2022-11-08T03:32:54.500Z,93.44
2022-11-08T03:38:26.266Z,92.99
2022-11-08T03:43:58.046Z,92.59
2022-11-08T03:49:29.625Z,92.56
2022-11-08T03:55:05.778Z,91.91
2022-11-08T04:00:37.466Z,91.55
2022-11-08T04:06:09.273Z,90.91
2022-11-08T04:11:40.957Z,91.42
2022-11-08T04:17:12.749Z,91.27
2022-11-08T04:22:44.386Z,91.36
2022-11-08T04:28:16.662Z,91.16
2022-11-08T04:33:47.841Z,91.5
2022-11-08T04:39:19.669Z,91.73
2022-11-08T04:44:51.308Z,91.74
2022-11-08T04:50:23.125Z,92.12
2022-11-08T04:55:59.148Z,93.14
2022-11-08T05:01:30.927Z,93.03
2022-11-08T05:07:03.226Z,93.86
2022-11-08T05:12:34.383Z,93.37
2022-11-08T05:18:06.040Z,93.71
2022-11-08T05:23:37.737Z,93.46
2022-11-08T05:29:09.596Z,93.25
2022-11-08T05:34:41.669Z,93.25
2022-11-08T05:40:12.942Z,93.16
2022-11-08T05:45:44.597Z,93.46
2022-11-08T05:51:16.901Z,93.17
2022-11-08T05:56:52.481Z,93.75
2022-11-08T06:02:24.446Z,94.3
2022-11-08T06:07:56.567Z,94.24
2022-11-08T06:13:28.072Z,95.34
2022-11-08T06:18:59.261Z,94.79
2022-11-08T06:24:31.365Z,95.31
2022-11-08T06:30:02.869Z,94.73
2022-11-08T06:35:34.498Z,93.96
2022-11-08T06:41:06.241Z,93.54
2022-11-08T06:46:38.758Z,93.81
2022-11-08T06:52:09.847Z,95.07
2022-11-08T06:57:45.823Z,95.26
2022-11-08T07:03:18.223Z,94.68
2022-11-08T07:08:51.008Z,94.6
2022-11-08T07:14:21.013Z,94.39
2022-11-08T07:19:52.774Z,94.19
2022-11-08T07:25:24.403Z,94.22
2022-11-08T07:30:56.167Z,94.83
2022-11-08T07:36:27.920Z,94.37
2022-11-08T07:41:59.630Z,94.01
2022-11-08T07:47:31.256Z,92.67
2022-11-08T07:53:03.501Z,92.47
2022-11-08T07:58:41.559Z,92.17
2022-11-08T08:04:12.844Z,93.55
2022-11-08T08:09:44.671Z,93.5
2022-11-08T08:15:16.343Z,93.56
2022-11-08T08:20:48.005Z,93.68
2022-11-08T08:26:19.805Z,91.73
2022-11-08T08:31:51.541Z,90.62
2022-11-08T08:37:23.248Z,89.75
2022-11-08T08:42:54.944Z,88.82
2022-11-08T08:48:26.927Z,88.64
2022-11-08T08:53:58.386Z,87.58
2022-11-08T09:05:06.239Z,87.24
2022-11-08T09:10:37.919Z,86.25
2022-11-08T09:16:09.851Z,85.21
2022-11-08T09:21:41.513Z,85.25
2022-11-08T09:27:13.033Z,86.21
2022-11-08T09:33:01.887Z,83.35
2022-11-08T09:38:17.056Z,84.61
2022-11-08T09:43:48.297Z,85.6
2022-11-08T09:49:20.025Z,83.16
2022-11-08T09:54:51.684Z,82.9
2022-11-08T10:00:27.768Z,81.1
2022-11-08T10:05:59.486Z,81.84
2022-11-08T10:11:31.303Z,81.63
2022-11-08T10:17:02.848Z,81.45
2022-11-08T10:22:34.847Z,80.7
2022-11-08T10:28:06.404Z,80.38
2022-11-08T10:33:38.110Z,80.09
2022-11-08T10:39:09.971Z,79.49
2022-11-08T10:44:41.701Z,81.05
2022-11-08T10:50:13.476Z,76.68
2022-11-08T10:55:45.101Z,73.95
2022-11-08T11:01:21.568Z,73.76
2022-11-08T11:06:53.552Z,72.58
2022-11-08T11:12:24.574Z,73.6
2022-11-08T11:17:56.342Z,73.45
2022-11-08T11:23:28.206Z,72.97
2022-11-08T11:28:59.909Z,74.17
2022-11-08T11:34:31.281Z,74.27
2022-11-08T11:40:03.113Z,73.57
2022-11-08T11:45:34.851Z,72.74
2022-11-08T11:51:06.746Z,72.26
2022-11-08T11:56:38.405Z,72.26
2022-11-08T12:02:14.651Z,73.3
2022-11-08T12:07:46.242Z,71.37
2022-11-08T12:13:17.858Z,71.0
2022-11-08T12:18:50.568Z,70.12
2022-11-08T12:24:21.297Z,71.0
2022-11-08T12:29:53.083Z,71.13
2022-11-08T12:35:24.742Z,70.35
2022-11-08T12:40:56.509Z,69.85
2022-11-08T12:46:28.432Z,66.95
2022-11-08T12:52:00.027Z,67.6
2022-11-08T12:57:31.699Z,66.96
2022-11-08T13:03:08.157Z,69.89
2022-11-08T13:08:40.577Z,67.75
2022-11-08T13:14:11.629Z,67.0
2022-11-08T13:19:43.380Z,68.78
2022-11-08T13:25:15.162Z,68.78
2022-11-08T13:30:46.808Z,69.33
2022-11-08T13:36:18.569Z,68.49
2022-11-08T13:41:50.273Z,68.76
2022-11-08T13:47:22.006Z,70.6
2022-11-08T13:52:53.783Z,71.85
2022-11-08T13:58:25.506Z,71.75
2022-11-08T14:04:01.963Z,70.17
2022-11-08T14:09:34.314Z,68.87
2022-11-08T14:15:05.037Z,69.8
2022-11-08T14:20:36.910Z,69.04
2022-11-08T14:26:08.566Z,68.58
2022-11-08T14:31:40.198Z,69.76
2022-11-08T14:37:11.918Z,69.08
2022-11-08T14:42:43.699Z,68.77
2022-11-08T14:48:15.544Z,69.77
2022-11-08T14:53:47.285Z,68.24
2022-11-08T14:59:18.809Z,67.56
2022-11-08T15:04:56.768Z,67.46
2022-11-08T15:10:28.694Z,67.75
2022-11-08T15:16:00.419Z,66.92
2022-11-08T15:21:32.057Z,67.51
2022-11-08T15:27:03.720Z,67.61
2022-11-08T15:32:35.622Z,68.64
2022-11-08T15:38:07.318Z,69.12
2022-11-08T15:43:39.064Z,69.7
2022-11-08T15:49:10.792Z,69.7
2022-11-08T15:54:42.589Z,70.25
2022-11-08T16:00:14.604Z,70.43
2022-11-08T16:05:50.493Z,70.68
2022-11-08T16:11:22.288Z,70.97
2022-11-08T16:16:54.047Z,72.33
2022-11-08T16:22:26.188Z,72.89
2022-11-08T16:27:57.493Z,73.13
2022-11-08T16:33:29.270Z,74.29
2022-11-08T16:39:01.153Z,73.36
2022-11-08T16:44:32.658Z,73.58
2022-11-08T16:50:04.385Z,74.26
2022-11-08T16:55:36.005Z,75.22
2022-11-08T17:01:10.812Z,75.76
2022-11-08T17:06:44.054Z,76.84
2022-11-08T17:12:15.609Z,77.42
2022-11-08T17:17:47.418Z,77.62
2022-11-08T17:23:19.055Z,77.96
2022-11-08T17:28:51.009Z,78.43
2022-11-08T17:34:22.544Z,78.99
2022-11-08T17:39:54.740Z,78.11
2022-11-08T17:45:26.046Z,77.96
2022-11-08T17:50:57.723Z,78.38
2022-11-08T17:56:29.491Z,77.92
2022-11-08T18:02:01.607Z,77.86
2022-11-08T18:07:37.267Z,78.42
2022-11-08T18:13:08.869Z,79.41
2022-11-08T18:18:40.586Z,78.97
2022-11-08T18:24:12.361Z,79.56
2022-11-08T18:29:44.157Z,79.67
2022-11-08T18:35:15.786Z,80.03
2022-11-08T18:40:47.580Z,81.06
2022-11-08T18:46:19.438Z,81.54
2022-11-08T18:51:51.153Z,81.61
2022-11-08T18:57:22.787Z,81.88
2022-11-08T19:02:54.459Z,82.58
2022-11-08T19:08:30.649Z,82.64
2022-11-08T19:14:02.381Z,83.34
2022-11-08T19:19:34.160Z,82.86
2022-11-08T19:25:05.826Z,82.47
2022-11-08T19:30:37.703Z,82.07
2022-11-08T19:36:09.614Z,81.52
2022-11-08T19:41:40.991Z,81.63
2022-11-08T19:47:19.641Z,81.73
2022-11-08T19:52:51.267Z,81.8
2022-11-08T19:58:23.101Z,82.94
2022-11-08T20:03:54.826Z,83.26
2022-11-08T20:09:31.488Z,84.45
2022-11-08T20:15:02.685Z,84.53
2022-11-08T20:20:34.395Z,85.33
2022-11-08T20:26:06.094Z,85.77
2022-11-08T20:31:38.668Z,85.8
2022-11-08T20:37:09.509Z,85.66
2022-11-08T20:42:41.335Z,83.09
2022-11-08T20:48:15.063Z,82.76
2022-11-08T20:53:44.804Z,82.11
2022-11-08T20:59:16.432Z,81.86
2022-11-08T21:04:48.097Z,81.14
2022-11-08T21:10:43.644Z,83.89
2022-11-08T21:16:27.139Z,83.79
2022-11-08T21:21:27.663Z,83.84
2022-11-08T21:26:59.396Z,84.75
2022-11-08T21:32:31.159Z,86.04
2022-11-08T21:38:02.884Z,84.54
2022-11-08T21:43:34.567Z,84.89
2022-11-08T21:49:06.297Z,84.96
2022-11-08T21:54:38.655Z,84.85
2022-11-08T22:00:09.699Z,85.66
2022-11-08T22:05:41.551Z,85.43
2022-11-08T22:11:19.611Z,85.06
2022-11-08T22:16:51.389Z,85.8
2022-11-08T22:22:22.994Z,84.89
2022-11-08T22:27:54.854Z,85.3
2022-11-08T22:33:26.660Z,84.43
2022-11-08T22:38:58.262Z,85.0
2022-11-08T22:44:29.725Z,85.18
2022-11-08T22:50:01.684Z,85.04
2022-11-08T22:55:33.721Z,83.88
2022-11-08T23:01:05.280Z,83.49
2022-11-08T23:06:36.844Z,85.86
2022-11-08T23:12:13.638Z,86.9
2022-11-08T23:17:44.670Z,86.9
2022-11-08T23:23:16.893Z,86.93
2022-11-08T23:28:48.335Z,87.0
2022-11-08T23:34:19.780Z,86.78
2022-11-08T23:39:51.459Z,87.23
2022-11-08T23:45:24.018Z,87.48
2022-11-08T23:50:54.955Z,87.02
2022-11-08T23:56:26.641Z,87.42
